Observations for Trim Market St
| Time | AQI | Temp °C | Hum % | Pres Pa | CO μg/m³ | H₂S μg/m³ | NO μg/m³ | NO₂ μg/m³ | O₃ μg/m³ | SO₂ μg/m³ | PM1 μg/m³ | PM2.5 μg/m³ | PM10 μg/m³ |
|---|---|---|---|---|---|---|---|---|---|---|---|---|---|
| Sunday 12 July 2026 | |||||||||||||
| 23:24 | 1 | 20.9 | 65 | 57,389 | 0 | 0 | 0 | 5.34 | 23.95 | 0 | 0.71 | 3.29 | 4.9 |
| 23:23 | 1 | 20.8 | 65 | 57,392 | 0 | 0 | 0 | 5.48 | 26.48 | 0 | 0.71 | 3.3 | 4.9 |
| 23:22 | 1 | 20.9 | 65 | 57,396 | 0 | 0 | 0 | 7.76 | 22.37 | 0 | 0 | 2.31 | 3.58 |
| 23:21 | 1 | 20.9 | 65 | 57,401 | 0 | 0 | 0 | 8.47 | 28.41 | 0 | 0.71 | 3.3 | 6.21 |
| 23:20 | 1 | 20.9 | 65 | 57,410 | 0 | 0 | 0 | 5.07 | 24.59 | 0 | 0.71 | 2.32 | 4.9 |
| 23:19 | 1 | 20.9 | 65 | 57,417 | 0 | 0 | 0 | 5.78 | 25.49 | 0 | 0.71 | 2.81 | 4.23 |
| 23:18 | 1 | 20.9 | 65 | 57,423 | 0 | 0 | 0 | 5.88 | 25.79 | 0 | 0.71 | 2.81 | 4.23 |
| 23:17 | 1 | 20.9 | 65 | 57,430 | 0 | 0 | 0 | 6.68 | 26.33 | 0 | 0.71 | 2.32 | 3.58 |
| 23:16 | 1 | 20.9 | 64 | 57,437 | 0 | 0 | 0 | 6.49 | 24.89 | 0 | 0.71 | 2.33 | 4.89 |
| 23:15 | 1 | 20.9 | 64 | 57,444 | 0 | 0 | 0 | 6.19 | 24.65 | 0 | 1.43 | 3.81 | 6.87 |
| 23:14 | 1 | 20.9 | 64 | 57,447 | 0 | 0 | 0 | 5.9 | 25.39 | 0 | 1.43 | 3.32 | 6.21 |
| 23:13 | 1 | 20.9 | 64 | 57,450 | 0 | 0 | 0 | 6.3 | 24.75 | 0 | 0.71 | 2.82 | 4.89 |
| 23:12 | 1 | 20.9 | 64 | 57,454 | 0 | 0 | 0 | 5.81 | 29.6 | 0 | 1.43 | 3.82 | 5.55 |
| 23:10 | 1 | 20.9 | 64 | 57,459 | 0 | 0 | 0 | 6.41 | 27.52 | 0 | 0.71 | 3.32 | 4.89 |
| 23:04 | 1 | 21 | 64 | 57,486 | 0 | 0 | 0 | 7.42 | 24.86 | 0 | 0.71 | 2.84 | 4.88 |
| 22:59 | 1 | 21.1 | 64 | 57,523 | 0 | 0 | 0 | 12.63 | 19.71 | 0 | 1.43 | 3.35 | 5.54 |
| 22:58 | 1 | 21.1 | 64 | 57,532 | 0 | 0 | 0 | 7.33 | 24.74 | 0 | 1.43 | 3.35 | 5.54 |
| 22:54 | 1 | 21.1 | 64 | 57,556 | 0 | 0 | 0 | 6.55 | 26.37 | 0 | 2.14 | 3.86 | 7.53 |
| 22:53 | 1 | 21.2 | 63 | 57,565 | 0 | 0 | 0 | 7.23 | 24.51 | 0 | 0.71 | 2.37 | 3.53 |
| 22:52 | 1 | 21.2 | 63 | 57,575 | 0 | 0 | 0 | 7.53 | 26.68 | 0 | 1.43 | 3.37 | 4.87 |